Terminal Aerodrome Forecast
Issued by NWS

Home | Current Version | Previous Version | Text Only | Print | Product List | Glossary On
Versions: 1 2 3 4 5 6 7 8 9 10 11 12 13 14 15
489
FTUS42 KGSP 071737
TAFGMU
TAF
KGMU 071737Z 0718/0818 02010G18KT P6SM SKC
     FM072200 34006KT P6SM FEW250
     FM080500 28003KT P6SM SKC
     FM081400 23006KT P6SM SCT050 BKN090
     FM081700 24011KT P6SM VCSH BKN035=

USA.gov is the U.S. government's official web portal to all federal, state and local government web resources and services.